Time;durP1;ratioP1;P1;durP2;ratioP2;P2;SDS_P1;SDS_P2;PMS_P1;PMS_P2;Temp;Humidity;BMP_temperature;BMP_pressure;BME280_temperature;BME280_humidity;BME280_pressure;Samples;Min_cycle;Max_cycle;Signal;HPM_P1;HPM_P2
2024/02/02 00:00:58;;;;;;;;;13.75;8.50;;;;;-143.90;100.00;76760.28;4855373;28;101974;-74
2024/02/02 00:03:25;;;;;;;;;15.00;13.50;;;;;-143.90;100.00;76754.09;4862793;28;104228;-72
2024/02/02 00:05:52;;;;;;;;;13.75;11.75;;;;;-143.90;100.00;76752.03;4862930;28;102362;-72
2024/02/02 00:08:20;;;;;;;;;14.75;12.75;;;;;-143.90;100.00;76762.38;4863522;28;102290;-71
2024/02/02 00:10:47;;;;;;;;;13.25;11.00;;;;;-143.90;100.00;76762.38;4865272;28;102428;-71
2024/02/02 00:13:13;;;;;;;;;13.50;11.00;;;;;-143.90;100.00;76760.28;4859528;28;108594;-72
2024/02/02 00:15:40;;;;;;;;;12.25;9.00;;;;;-143.90;100.00;76756.16;4864558;28;101984;-71
2024/02/02 00:18:07;;;;;;;;;9.00;9.00;;;;;-143.90;100.00;76760.28;4864324;28;104456;-73
2024/02/02 00:20:33;;;;;;;;;13.75;10.25;;;;;-143.90;100.00;76764.44;4862279;28;102244;-72
2024/02/02 00:23:01;;;;;;;;;13.00;10.00;;;;;-143.90;100.00;76760.28;4855627;28;104360;-72
2024/02/02 00:25:28;;;;;;;;;10.75;8.25;;;;;-143.90;100.00;76760.28;4867460;28;102282;-71
2024/02/02 00:27:54;;;;;;;;;12.25;11.75;;;;;-143.90;100.00;76770.63;4864859;28;102177;-72
2024/02/02 00:30:21;;;;;;;;;12.25;10.00;;;;;-143.90;100.00;76766.50;4867166;28;102275;-72
2024/02/02 00:32:48;;;;;;;;;16.75;11.50;;;;;-143.90;100.00;76772.72;4861581;28;104061;-70
2024/02/02 00:35:15;;;;;;;;;14.25;12.75;;;;;-143.90;100.00;76780.97;4864882;28;102195;-71
2024/02/02 00:37:43;;;;;;;;;13.00;10.00;;;;;-143.90;100.00;76772.72;4862014;28;102102;-72
2024/02/02 00:40:10;;;;;;;;;11.00;10.00;;;;;-143.90;100.00;76768.56;4844871;28;102334;-71
2024/02/02 00:42:37;;;;;;;;;11.00;10.00;;;;;-143.90;100.00;76776.84;4859119;28;104374;-72
2024/02/02 00:45:04;;;;;;;;;15.75;9.75;;;;;-143.90;100.00;76764.44;4853685;28;102149;-71
2024/02/02 00:47:31;;;;;;;;;12.50;10.75;;;;;-143.90;100.00;76776.84;4863204;28;102133;-72
2024/02/02 00:49:58;;;;;;;;;10.25;9.25;;;;;-143.90;100.00;76778.91;4857494;28;103848;-71
2024/02/02 00:52:26;;;;;;;;;15.50;11.00;;;;;-143.90;100.00;76780.97;4863239;28;104461;-70
2024/02/02 00:54:54;;;;;;;;;15.50;11.25;;;;;-143.90;100.00;76783.03;4855797;28;102488;-72
2024/02/02 00:57:20;;;;;;;;;17.25;13.00;;;;;-143.90;100.00;76789.25;4863090;28;103116;-73
2024/02/02 00:59:50;;;;;;;;;11.75;9.75;;;;;-143.90;100.00;76780.97;4862178;28;102416;-73
2024/02/02 01:02:17;;;;;;;;;16.50;12.00;;;;;-143.90;100.00;76783.03;4863867;28;108979;-73
2024/02/02 01:04:44;;;;;;;;;14.00;9.75;;;;;-143.90;100.00;76789.25;4862541;28;102023;-73
2024/02/02 01:07:18;;;;;;;;;14.50;13.75;;;;;-143.90;100.00;76780.97;4851395;28;102054;-72
2024/02/02 01:09:45;;;;;;;;;12.75;10.50;;;;;-143.90;100.00;76785.13;4864553;28;102234;-72
2024/02/02 01:12:11;;;;;;;;;10.25;9.25;;;;;-143.90;100.00;76776.84;4860041;28;104039;-73
2024/02/02 01:14:39;;;;;;;;;11.50;9.75;;;;;-143.90;100.00;76780.97;4865402;28;102327;-73
2024/02/02 01:17:09;;;;;;;;;14.00;12.50;;;;;-143.90;100.00;76793.38;4857494;28;105016;-72
2024/02/02 01:19:36;;;;;;;;;15.25;11.50;;;;;-143.90;100.00;76797.53;4864718;28;102385;-72
2024/02/02 01:22:03;;;;;;;;;14.00;11.50;;;;;-143.90;100.00;76793.38;4846457;28;104163;-72
2024/02/02 01:24:30;;;;;;;;;16.00;12.50;;;;;-143.90;100.00;76793.38;4863281;28;102167;-73
2024/02/02 01:26:57;;;;;;;;;15.50;11.00;;;;;-143.90;100.00;76793.38;4854306;28;102409;-72
2024/02/02 01:29:25;;;;;;;;;12.00;10.00;;;;;-143.90;100.00;76789.25;4865218;28;102313;-73
2024/02/02 01:31:51;;;;;;;;;11.00;9.00;;;;;-143.90;100.00;76787.19;4857091;28;104104;-73
2024/02/02 01:34:18;;;;;;;;;11.50;9.00;;;;;-143.90;100.00;76793.38;4859697;28;102425;-72
2024/02/02 01:36:45;;;;;;;;;7.00;6.25;;;;;-143.90;100.00;76793.38;4857795;28;101859;-73
2024/02/02 01:39:13;;;;;;;;;9.00;6.75;;;;;-143.90;100.00;76789.25;4855352;28;104158;-72
2024/02/02 01:41:40;;;;;;;;;14.00;10.00;;;;;-143.90;100.00;76793.38;4858858;28;105429;-71
2024/02/02 01:44:07;;;;;;;;;11.50;8.00;;;;;-143.90;100.00;76783.03;4859863;28;102114;-70
2024/02/02 01:46:33;;;;;;;;;8.00;7.00;;;;;-143.90;100.00;76789.25;4863564;28;101822;-71
2024/02/02 01:49:01;;;;;;;;;6.25;6.00;;;;;-143.90;100.00;76783.03;4849006;28;101975;-71
2024/02/02 01:51:28;;;;;;;;;8.00;7.00;;;;;-143.90;100.00;76783.03;4863108;28;104022;-70
2024/02/02 01:53:55;;;;;;;;;9.00;6.00;;;;;-143.90;100.00;76787.19;4855421;28;102547;-72
2024/02/02 01:56:21;;;;;;;;;8.00;6.50;;;;;-143.90;100.00;76785.13;4853407;28;102206;-71
2024/02/02 01:58:48;;;;;;;;;9.75;9.00;;;;;-143.90;100.00;76787.19;4858812;28;102380;-71
2024/02/02 02:01:16;;;;;;;;;6.25;5.75;;;;;-143.90;100.00;76783.03;4858668;28;104127;-71
2024/02/02 02:03:44;;;;;;;;;9.50;7.00;;;;;-143.90;100.00;76793.38;4859871;28;102286;-71
2024/02/02 02:06:10;;;;;;;;;6.25;5.50;;;;;-143.90;100.00;76787.19;4858596;28;102309;-71
2024/02/02 02:08:37;;;;;;;;;9.75;8.00;;;;;-143.90;100.00;76787.19;4854227;28;103258;-71
2024/02/02 02:11:06;;;;;;;;;11.00;8.50;;;;;-143.90;100.00;76785.13;4849399;28;103477;-72
2024/02/02 02:13:33;;;;;;;;;9.25;7.00;;;;;-143.90;100.00;76789.25;4859225;28;102381;-71
2024/02/02 02:16:00;;;;;;;;;8.75;8.75;;;;;-143.90;100.00;76797.53;4858897;28;102496;-72
2024/02/02 02:18:27;;;;;;;;;12.00;9.25;;;;;-143.90;100.00;76799.59;4860666;28;102185;-71
2024/02/02 02:20:55;;;;;;;;;10.00;7.00;;;;;-143.90;100.00;76789.25;4854498;28;104120;-71
2024/02/02 02:23:22;;;;;;;;;8.50;7.00;;;;;-143.90;100.00;76789.25;4853828;28;104323;-71
2024/02/02 02:25:48;;;;;;;;;11.75;8.00;;;;;-143.90;100.00;76797.53;4864670;28;103112;-72
2024/02/02 02:28:15;;;;;;;;;11.50;8.25;;;;;-143.90;100.00;76799.59;4861751;28;102122;-72
2024/02/02 02:30:45;;;;;;;;;9.75;7.50;;;;;-143.90;100.00;76809.94;4863139;28;104061;-72
2024/02/02 02:33:12;;;;;;;;;9.50;6.00;;;;;-143.90;100.00;76801.66;4853425;28;107370;-71
2024/02/02 02:35:39;;;;;;;;;6.75;5.75;;;;;-143.90;100.00;76793.38;4860179;28;102139;-72
2024/02/02 02:38:05;;;;;;;;;6.50;5.25;;;;;-143.90;100.00;76803.72;4860611;28;102538;-72
2024/02/02 02:40:32;;;;;;;;;8.50;5.50;;;;;-143.90;100.00;76805.78;4862412;28;104046;-71
2024/02/02 02:42:59;;;;;;;;;11.75;9.50;;;;;-143.90;100.00;76818.22;4847515;28;102795;-71
2024/02/02 02:45:26;;;;;;;;;6.25;6.25;;;;;-143.90;100.00;76822.34;4855557;28;102926;-71
2024/02/02 02:47:53;;;;;;;;;10.00;6.00;;;;;-143.90;100.00;76824.41;4862584;28;103533;-71
2024/02/02 02:50:20;;;;;;;;;5.75;4.75;;;;;-143.90;100.00;76820.28;4856908;28;104007;-71
2024/02/02 02:52:46;;;;;;;;;5.75;4.25;;;;;-143.90;100.00;76818.22;4864184;28;102021;-72
2024/02/02 02:55:13;;;;;;;;;6.00;5.00;;;;;-143.90;100.00;76814.06;4859594;28;101836;-71
2024/02/02 02:57:40;;;;;;;;;9.00;6.00;;;;;-143.90;100.00;76826.47;4860392;28;102191;-72
2024/02/02 03:00:09;;;;;;;;;6.00;5.50;;;;;-143.90;100.00;76836.81;4866588;28;104157;-71
2024/02/02 03:02:36;;;;;;;;;9.00;7.00;;;;;-143.90;100.00;76836.81;4856665;28;102439;-71
2024/02/02 03:05:03;;;;;;;;;6.50;6.50;;;;;-143.90;100.00;76834.75;4854181;28;102441;-72
2024/02/02 03:07:30;;;;;;;;;8.00;6.50;;;;;-143.90;100.00;76824.41;4859973;28;102319;-71
2024/02/02 03:09:57;;;;;;;;;12.00;11.00;;;;;-143.90;100.00;76838.88;4865785;28;104030;-71
2024/02/02 03:12:23;;;;;;;;;12.00;10.00;;;;;-143.90;100.00;76836.81;4861106;28;102437;-71
2024/02/02 03:14:50;;;;;;;;;14.00;10.75;;;;;-143.90;100.00;76838.88;4858236;28;102299;-72
2024/02/02 03:17:17;;;;;;;;;13.50;8.50;;;;;-143.90;100.00;76834.75;4860265;28;102114;-71
2024/02/02 03:19:44;;;;;;;;;13.50;9.75;;;;;-143.90;100.00;76838.88;4858958;28;104197;-72
2024/02/02 03:22:11;;;;;;;;;8.00;6.75;;;;;-143.90;100.00;76849.22;4860240;28;102047;-71
2024/02/02 03:24:38;;;;;;;;;6.75;6.00;;;;;-143.90;100.00;76855.44;4860599;28;102267;-73
2024/02/02 03:27:04;;;;;;;;;7.50;6.75;;;;;-143.90;100.00;76859.56;4857054;28;102547;-71
2024/02/02 03:29:31;;;;;;;;;8.75;6.25;;;;;-143.90;100.00;76867.84;4861437;28;104065;-71
2024/02/02 03:31:58;;;;;;;;;9.00;7.00;;;;;-143.90;100.00;76861.63;4860276;28;102344;-71
2024/02/02 03:34:24;;;;;;;;;5.50;4.00;;;;;-143.90;100.00;76859.56;4861951;28;102287;-71
2024/02/02 03:36:51;;;;;;;;;8.75;6.00;;;;;-143.90;100.00;76861.63;4859825;28;103498;-72
2024/02/02 03:39:18;;;;;;;;;8.50;5.00;;;;;-143.90;100.00;76863.72;4864834;28;108230;-71
2024/02/02 03:41:44;;;;;;;;;5.50;3.00;;;;;-143.90;100.00;76865.78;4868955;28;102459;-71
2024/02/02 03:44:11;;;;;;;;;5.50;3.00;;;;;-143.90;100.00;76874.06;4861030;28;103140;-71
2024/02/02 03:46:38;;;;;;;;;5.75;5.00;;;;;-143.90;100.00;76878.19;4866883;28;102027;-71
2024/02/02 03:49:04;;;;;;;;;9.00;6.75;;;;;-143.90;100.00;76898.88;4854116;28;104319;-71
2024/02/02 03:51:31;;;;;;;;;6.50;5.75;;;;;-143.90;100.00;76896.81;4860673;28;106723;-71
2024/02/02 03:53:58;;;;;;;;;14.00;7.25;;;;;-143.90;100.00;76909.22;4863222;28;102221;-71
2024/02/02 03:56:25;;;;;;;;;10.25;8.25;;;;;-143.90;100.00;76929.91;4863421;28;102422;-71
2024/02/02 03:58:52;;;;;;;;;9.25;6.75;;;;;-143.90;100.00;76927.81;4852886;28;104132;-71
2024/02/02 04:01:20;;;;;;;;;6.00;3.25;;;;;-143.90;100.00;76925.75;4866710;28;102247;-70
2024/02/02 04:03:46;;;;;;;;;8.00;6.75;;;;;-143.90;100.00;76929.91;4876352;28;102862;-72
2024/02/02 04:06:13;;;;;;;;;15.25;11.25;;;;;-143.90;100.00;76925.75;4864665;28;102038;-71
2024/02/02 04:08:40;;;;;;;;;10.00;8.00;;;;;-143.90;100.00;76927.81;4863651;28;104169;-72
2024/02/02 04:11:09;;;;;;;;;9.00;8.00;;;;;-143.90;100.00;76923.69;4857374;28;102827;-71
2024/02/02 04:13:36;;;;;;;;;5.50;4.50;;;;;-143.90;100.00;76925.75;4864009;28;102415;-71
2024/02/02 04:16:03;;;;;;;;;8.50;6.75;;;;;-143.90;100.00;76925.75;4863830;28;102007;-72
2024/02/02 04:18:30;;;;;;;;;9.00;6.25;;;;;-143.90;100.00;76931.97;4861582;28;104331;-72
2024/02/02 04:20:57;;;;;;;;;6.50;6.00;;;;;-143.90;100.00;76919.56;4856372;28;102404;-72
2024/02/02 04:23:25;;;;;;;;;7.25;6.00;;;;;-143.90;100.00;76925.75;4860929;28;102284;-71
2024/02/02 04:25:51;;;;;;;;;9.50;5.50;;;;;-143.90;100.00;76921.63;4857431;28;106027;-72
2024/02/02 04:28:18;;;;;;;;;9.50;6.00;;;;;-143.90;100.00;76925.75;4863887;28;104038;-71
2024/02/02 04:30:45;;;;;;;;;9.00;9.00;;;;;-143.90;100.00;76925.75;4862052;28;102709;-71
2024/02/02 04:33:13;;;;;;;;;7.00;6.00;;;;;-143.90;100.00;76917.47;4859651;28;102355;-72
2024/02/02 04:35:40;;;;;;;;;17.25;10.50;;;;;-143.90;100.00;76931.97;4865778;28;102071;-71
2024/02/02 04:38:07;;;;;;;;;10.25;8.00;;;;;-143.90;100.00;76917.47;4862612;28;104116;-71
2024/02/02 04:40:33;;;;;;;;;13.00;10.00;;;;;-143.90;100.00;76929.91;4866050;28;102243;-71
2024/02/02 04:43:00;;;;;;;;;10.25;9.00;;;;;-143.90;100.00;76919.56;4851396;28;102373;-72
2024/02/02 04:45:27;;;;;;;;;13.75;7.50;;;;;-143.90;100.00;76925.75;4866878;28;103114;-72
2024/02/02 04:47:54;;;;;;;;;13.25;9.50;;;;;-143.90;100.00;76934.03;4861137;28;104085;-72
2024/02/02 04:50:22;;;;;;;;;12.75;11.00;;;;;-143.90;100.00;76923.69;4864541;28;104482;-72
2024/02/02 04:52:48;;;;;;;;;9.50;9.00;;;;;-143.90;100.00;76923.69;4859710;28;102021;-71
2024/02/02 04:55:15;;;;;;;;;9.25;6.75;;;;;-143.90;100.00;76923.69;4859323;28;102747;-72
2024/02/02 04:57:42;;;;;;;;;12.50;10.00;;;;;-143.90;100.00;76921.63;4859949;28;104082;-72
2024/02/02 05:00:09;;;;;;;;;13.00;10.00;;;;;-143.90;100.00;76919.56;4848419;28;102452;-72
2024/02/02 05:02:37;;;;;;;;;14.25;11.25;;;;;-143.90;100.00;76915.41;4828221;28;102215;-72
2024/02/02 05:05:05;;;;;;;;;11.50;9.00;;;;;-143.90;100.00;76911.28;4825741;28;103562;-72
2024/02/02 05:07:32;;;;;;;;;8.75;7.00;;;;;-143.90;100.00;76929.91;4831666;28;104128;-72
2024/02/02 05:09:59;;;;;;;;;12.50;10.00;;;;;-143.90;100.00;76927.81;4832443;28;102540;-72
2024/02/02 05:12:26;;;;;;;;;6.25;6.00;;;;;-143.90;100.00;76944.38;4836982;28;103231;-72
2024/02/02 05:14:53;;;;;;;;;11.00;10.00;;;;;-143.90;100.00;76963.00;4829258;28;102158;-72
2024/02/02 05:17:19;;;;;;;;;10.00;9.00;;;;;-143.90;100.00;76975.41;4834225;28;108929;-71
2024/02/02 05:19:46;;;;;;;;;17.75;14.00;;;;;-143.90;100.00;77000.22;4832396;28;102086;-71
2024/02/02 05:22:13;;;;;;;;;13.00;11.00;;;;;-143.90;100.00;76991.94;4817321;28;102146;-71
2024/02/02 05:24:40;;;;;;;;;13.00;9.00;;;;;-143.90;100.00;77000.22;4838523;28;102113;-71
2024/02/02 05:27:12;;;;;;;;;9.25;8.50;;;;;-143.90;100.00;76996.09;4825260;28;104350;-71
2024/02/02 05:29:39;;;;;;;;;13.00;12.25;;;;;-143.90;100.00;77008.50;4818909;28;102392;-72
2024/02/02 05:32:06;;;;;;;;;12.50;9.75;;;;;-143.90;100.00;77000.22;4816467;28;104310;-72
2024/02/02 05:34:32;;;;;;;;;10.00;6.50;;;;;-143.90;100.00;77004.34;4839943;28;101981;-72
2024/02/02 05:37:00;;;;;;;;;13.00;10.25;;;;;-143.90;100.00;77008.50;4835053;28;104122;-71
2024/02/02 05:39:27;;;;;;;;;21.00;16.50;;;;;-143.90;100.00;77020.91;4837204;28;102344;-72
2024/02/02 05:41:55;;;;;;;;;16.00;13.50;;;;;-143.90;100.00;77020.91;4839997;28;102006;-72
2024/02/02 05:44:21;;;;;;;;;15.25;12.75;;;;;-143.90;100.00;77000.22;4836302;28;102116;-71
2024/02/02 05:46:48;;;;;;;;;20.50;17.50;;;;;-143.90;100.00;77012.63;4839053;28;104115;-72
2024/02/02 05:49:15;;;;;;;;;22.00;19.50;;;;;-143.90;100.00;77004.34;4847124;28;101980;-72
2024/02/02 05:51:42;;;;;;;;;16.50;14.00;;;;;-143.90;100.00;76996.09;4839539;28;101798;-72
2024/02/02 05:54:09;;;;;;;;;24.25;18.75;;;;;-143.90;100.00;76989.88;4855506;28;101955;-72
2024/02/02 05:56:35;;;;;;;;;23.25;19.75;;;;;-143.90;100.00;76994.00;4855396;28;103733;-72
2024/02/02 05:59:02;;;;;;;;;25.75;19.50;;;;;-143.90;100.00;76981.59;4852198;28;105458;-72
2024/02/02 06:01:28;;;;;;;;;21.75;17.75;;;;;-143.90;100.00;76979.53;4871734;28;102035;-72
2024/02/02 06:03:56;;;;;;;;;22.50;15.25;;;;;-143.90;100.00;76973.31;4875989;28;103017;-72
2024/02/02 06:06:23;;;;;;;;;17.75;16.00;;;;;-143.90;100.00;76963.00;4873654;28;103331;-72
2024/02/02 06:08:50;;;;;;;;;20.75;13.75;;;;;-143.90;100.00;76967.13;4876653;28;101821;-72
2024/02/02 06:11:16;;;;;;;;;23.25;18.50;;;;;-143.90;100.00;76977.47;4882219;28;101563;-71
2024/02/02 06:13:43;;;;;;;;;16.25;10.25;;;;;-143.90;100.00;77012.63;4873867;28;101980;-72
2024/02/02 06:16:10;;;;;;;;;17.50;14.00;;;;;-143.90;100.00;77008.50;4876119;28;103389;-71
2024/02/02 06:18:36;;;;;;;;;22.00;20.75;;;;;-143.90;100.00;77031.25;4867068;28;102271;-72
2024/02/02 06:21:03;;;;;;;;;26.25;18.00;;;;;-143.90;100.00;77033.31;4863040;28;101939;-72
2024/02/02 06:23:30;;;;;;;;;20.75;17.00;;;;;-143.90;100.00;77027.09;4876424;28;101894;-71
2024/02/02 06:25:57;;;;;;;;;27.25;16.75;;;;;-143.90;100.00;77041.59;4874822;28;103445;-71
2024/02/02 06:28:23;;;;;;;;;20.50;16.00;;;;;-143.90;100.00;77043.66;4884220;28;101625;-72
2024/02/02 06:30:52;;;;;;;;;24.50;17.75;;;;;-143.90;100.00;77054.00;4873976;28;101689;-73
2024/02/02 06:33:19;;;;;;;;;21.00;14.50;;;;;-143.90;100.00;77051.94;4879489;28;101948;-71
2024/02/02 06:35:46;;;;;;;;;17.50;14.75;;;;;-143.90;100.00;77058.13;4873660;28;103817;-72
2024/02/02 06:38:13;;;;;;;;;14.50;10.00;;;;;-143.90;100.00;77066.41;4877312;28;101959;-71
2024/02/02 06:40:39;;;;;;;;;14.25;13.00;;;;;-143.90;100.00;77070.53;4874690;28;102009;-71
2024/02/02 06:43:06;;;;;;;;;10.00;9.00;;;;;-143.90;100.00;77072.59;4871991;28;102112;-72
2024/02/02 06:45:33;;;;;;;;;13.00;9.00;;;;;-143.90;100.00;77066.41;4878380;28;103335;-72
2024/02/02 06:48:00;;;;;;;;;16.50;10.00;;;;;-143.90;100.00;77074.69;4877246;28;102089;-71
2024/02/02 06:50:28;;;;;;;;;9.50;9.00;;;;;-143.90;100.00;77080.88;4878961;28;101642;-72
2024/02/02 06:52:55;;;;;;;;;10.00;7.50;;;;;-143.90;100.00;77070.53;4870513;28;101976;-72
2024/02/02 06:55:22;;;;;;;;;14.25;9.00;;;;;-143.90;100.00;77082.94;4879530;28;109267;-71
2024/02/02 06:57:48;;;;;;;;;10.50;9.50;;;;;-143.90;100.00;77080.88;4875380;28;102750;-72
2024/02/02 07:00:16;;;;;;;;;12.00;9.00;;;;;-143.90;100.00;77082.94;4879344;28;101950;-72
2024/02/02 07:02:43;;;;;;;;;13.50;7.50;;;;;-143.90;100.00;77066.41;4876335;28;102024;-72
2024/02/02 07:05:14;;;;;;;;;5.75;5.00;;;;;-143.90;100.00;77066.41;4866796;28;104494;-72
2024/02/02 07:07:41;;;;;;;;;10.00;9.00;;;;;-143.90;100.00;77070.53;4870903;28;102066;-72
2024/02/02 07:10:18;;;;;;;;;11.00;8.00;;;;;-143.90;100.00;77072.59;4866472;28;103273;-72
2024/02/02 07:13:01;;;;;;;;;12.75;11.00;;;;;-143.90;100.00;77060.19;4865733;28;101949;-71
2024/02/02 07:15:40;;;;;;;;;10.25;8.00;;;;;-143.90;100.00;77062.25;4869184;28;108085;-73
2024/02/02 07:18:32;;;;;;;;;14.25;10.00;;;;;-143.90;100.00;77068.47;4868347;28;101788;-72
2024/02/02 07:21:04;;;;;;;;;9.25;8.50;;;;;-143.90;100.00;77058.13;4863086;28;106032;-72
2024/02/02 07:23:36;;;;;;;;;12.50;10.00;;;;;-143.90;100.00;77056.06;4868197;28;103929;-72
2024/02/02 07:26:06;;;;;;;;;21.00;16.25;;;;;-143.90;100.00;77066.41;4872049;28;103406;-72
2024/02/02 07:28:36;;;;;;;;;13.25;11.50;;;;;-143.90;100.00;77060.19;4875458;28;101594;-72
2024/02/02 07:31:06;;;;;;;;;11.00;9.00;;;;;-143.90;100.00;77049.84;4862734;28;102047;-72
2024/02/02 07:33:40;;;;;;;;;17.25;13.00;;;;;-143.90;100.00;77054.00;4872927;28;104274;-72
2024/02/02 07:36:33;;;;;;;;;16.75;12.25;;;;;-143.90;100.00;77049.84;4875129;28;103388;-72
2024/02/02 07:39:00;;;;;;;;;19.00;14.00;;;;;-143.90;100.00;77051.94;4845364;28;102849;-72
2024/02/02 07:41:28;;;;;;;;;18.50;15.75;;;;;-143.90;100.00;77049.84;4865680;28;101720;-72
2024/02/02 07:44:01;;;;;;;;;20.00;15.25;;;;;-143.90;100.00;77045.72;4875840;28;104209;-71
2024/02/02 07:46:28;;;;;;;;;21.50;19.25;;;;;-143.90;100.00;77051.94;4866987;28;103392;-72
2024/02/02 07:48:55;;;;;;;;;17.50;17.50;;;;;-143.90;100.00;77056.06;4862769;28;101960;-72
2024/02/02 07:51:24;;;;;;;;;20.25;16.25;;;;;-143.90;100.00;77056.06;4868527;28;102478;-72
2024/02/02 07:53:53;;;;;;;;;19.25;16.75;;;;;-143.90;100.00;77060.19;4864671;28;102026;-73
2024/02/02 07:56:22;;;;;;;;;18.75;14.00;;;;;-143.90;100.00;77058.13;4876399;28;107965;-70
2024/02/02 07:58:49;;;;;;;;;16.50;12.00;;;;;-143.90;100.00;77047.78;4871342;28;101898;-70
2024/02/02 08:01:16;;;;;;;;;16.50;13.00;;;;;-143.90;100.00;77062.25;4864712;28;101546;-71
2024/02/02 08:03:43;;;;;;;;;17.75;14.00;;;;;-143.90;100.00;77062.25;4867531;28;102091;-71
2024/02/02 08:06:12;;;;;;;;;15.75;11.50;;;;;-143.90;100.00;77054.00;4849548;28;103249;-71
2024/02/02 08:08:39;;;;;;;;;16.75;13.75;;;;;-143.90;100.00;77033.31;4856813;28;101845;-72
2024/02/02 08:11:06;;;;;;;;;20.25;14.75;;;;;-143.90;100.00;77029.19;4867227;28;102157;-70
2024/02/02 08:13:33;;;;;;;;;21.00;13.25;;;;;-143.90;100.00;76996.09;4871399;28;101635;-71
2024/02/02 08:15:59;;;;;;;;;14.00;11.00;;;;;-143.90;100.00;76985.75;4875994;28;106612;-72
2024/02/02 08:18:27;;;;;;;;;21.25;15.00;;;;;-143.90;100.00;76991.94;4863478;28;104364;-71
2024/02/02 08:20:54;;;;;;;;;16.50;13.75;;;;;-143.90;100.00;76987.81;4868398;28;101704;-70
2024/02/02 08:23:21;;;;;;;;;17.75;16.50;;;;;-143.90;100.00;76998.16;4869460;28;102832;-71
2024/02/02 08:25:48;;;;;;;;;13.25;11.50;;;;;-143.90;100.00;76971.25;4854423;28;103392;-71
2024/02/02 08:28:15;;;;;;;;;16.00;12.00;;;;;-143.90;100.00;76973.31;4871993;28;102541;-71
2024/02/02 08:30:41;;;;;;;;;21.25;16.50;;;;;-143.90;100.00;76971.25;4871035;28;102835;-71
2024/02/02 08:33:08;;;;;;;;;26.00;17.25;;;;;-143.90;100.00;76975.41;4862997;28;102543;-72
2024/02/02 08:35:35;;;;;;;;;19.00;14.50;;;;;-143.90;100.00;76952.66;4872692;28;104664;-71
2024/02/02 08:38:06;;;;;;;;;17.25;14.25;;;;;-143.90;100.00;76938.16;4874852;28;102426;-71
2024/02/02 08:40:43;;;;;;;;;25.75;19.75;;;;;-143.90;100.00;76958.84;4870652;28;102392;-71
2024/02/02 08:43:11;;;;;;;;;26.25;22.00;;;;;-143.90;100.00;76950.56;4866034;28;101908;-70
2024/02/02 08:45:41;;;;;;;;;17.00;14.25;;;;;-143.90;100.00;76936.09;4876780;28;103470;-72
2024/02/02 08:48:23;;;;;;;;;23.50;21.25;;;;;-143.90;100.00;76927.81;4873716;28;101709;-72
2024/02/02 08:50:50;;;;;;;;;22.25;19.50;;;;;-143.90;100.00;76929.91;4872398;28;101975;-72
2024/02/02 08:53:18;;;;;;;;;16.75;14.00;;;;;-143.90;100.00;76923.69;4868738;28;102000;-71
2024/02/02 08:55:51;;;;;;;;;23.00;18.50;;;;;-143.90;100.00;76934.03;4866563;28;103460;-72
2024/02/02 08:58:23;;;;;;;;;19.25;17.50;;;;;-143.90;100.00;76934.03;4870347;28;101779;-72
2024/02/02 09:00:51;;;;;;;;;13.00;11.00;;;;;-143.90;100.00;76923.69;4869216;28;103757;-72
2024/02/02 09:03:47;;;;;;;;;21.00;17.25;;;;;-143.90;100.00;76917.47;4865769;28;101904;-71
2024/02/02 09:06:41;;;;;;;;;23.25;17.25;;;;;-143.90;100.00;76921.63;4869696;28;107985;-72
2024/02/02 09:09:11;;;;;;;;;15.75;13.50;;;;;-143.90;100.00;76921.63;4863597;28;102300;-72
2024/02/02 09:11:38;;;;;;;;;22.00;16.50;;;;;-143.90;100.00;76925.75;4871998;28;101507;-72
2024/02/02 09:14:14;;;;;;;;;28.75;20.50;;;;;-143.90;100.00;76931.97;4865853;28;101625;-71
2024/02/02 09:16:43;;;;;;;;;27.50;19.50;;;;;-143.90;100.00;76942.31;4871410;28;103344;-72
2024/02/02 09:19:24;;;;;;;;;16.25;15.50;;;;;-143.90;100.00;76925.75;4863027;28;101779;-72
2024/02/02 09:21:50;;;;;;;;;19.25;14.75;;;;;-143.90;100.00;76921.63;4866641;28;103048;-72
2024/02/02 09:24:43;;;;;;;;;16.25;15.25;;;;;-143.90;100.00;76915.41;4854905;28;103309;-71
2024/02/02 09:27:14;;;;;;;;;22.25;19.00;;;;;-143.90;100.00;76942.31;4863146;28;108018;-71
2024/02/02 09:29:45;;;;;;;;;21.25;16.25;;;;;-143.90;100.00;76934.03;4868514;28;102162;-71
2024/02/02 09:32:14;;;;;;;;;17.00;14.50;;;;;-143.90;100.00;76919.56;4874929;28;102075;-72
2024/02/02 09:34:42;;;;;;;;;24.50;19.75;;;;;-143.90;100.00;76909.22;4850022;28;103083;-71
2024/02/02 09:37:14;;;;;;;;;19.50;14.75;;;;;-143.90;100.00;76892.66;4858486;28;103368;-71
2024/02/02 09:39:47;;;;;;;;;17.75;14.75;;;;;-143.90;100.00;76900.94;4875930;28;102055;-73
2024/02/02 09:42:54;;;;;;;;;21.00;19.75;;;;;-143.90;100.00;76900.94;4870333;28;102226;-73
2024/02/02 09:45:37;;;;;;;;;19.75;18.75;;;;;-143.90;100.00;76903.00;4787549;29;102110;-72
2024/02/02 09:48:13;;;;;;;;;16.25;13.00;;;;;-143.90;100.00;76900.94;4792625;29;107736;-71
2024/02/02 09:51:04;;;;;;;;;24.50;18.25;;;;;-143.90;100.00;76880.25;4845414;28;102807;-71
2024/02/02 09:53:57;;;;;;;;;20.50;15.25;;;;;-143.90;100.00;76836.81;4871827;28;103321;-72
2024/02/02 09:56:39;;;;;;;;;25.50;19.50;;;;;-143.90;100.00;76855.44;4874524;28;101595;-72
2024/02/02 09:59:25;;;;;;;;;17.75;13.75;;;;;-143.90;100.00;76843.03;4872065;28;107841;-72
2024/02/02 10:02:10;;;;;;;;;22.00;19.50;;;;;-143.90;100.00;76838.88;4874820;28;102262;-72
2024/02/02 10:04:56;;;;;;;;;21.00;15.00;;;;;-143.90;100.00;76847.16;4877621;28;101669;-72
2024/02/02 10:07:53;;;;;;;;;15.50;15.50;;;;;-143.90;100.00;76859.56;4874651;28;101873;-72
2024/02/02 10:10:29;;;;;;;;;18.00;12.25;;;;;-143.90;100.00;76863.72;4876287;28;108117;-71
2024/02/02 10:13:07;;;;;;;;;16.50;13.00;;;;;-143.90;100.00;76853.38;4865151;28;102656;-71
2024/02/02 10:15:46;;;;;;;;;18.75;15.00;;;;;-143.90;100.00;76847.16;4874377;28;101586;-72
2024/02/02 10:18:52;;;;;;;;;5.75;5.75;;;;;-143.90;100.00;76840.97;4877189;28;101568;-71
2024/02/02 10:21:48;;;;;;;;;14.75;14.25;;;;;-143.90;100.00;76805.78;4869967;28;107877;-72
2024/02/02 10:24:42;;;;;;;;;16.00;11.75;;;;;-143.90;100.00;76814.06;4864642;28;101670;-71
2024/02/02 10:27:18;;;;;;;;;14.50;9.50;;;;;-143.90;100.00;76801.66;4867862;28;101696;-72
2024/02/02 10:30:05;;;;;;;;;13.25;13.25;;;;;-143.90;100.00;76789.25;4871627;28;101719;-71
2024/02/02 10:32:50;;;;;;;;;12.00;11.00;;;;;-143.90;100.00;76799.59;4870901;28;107858;-73
2024/02/02 10:35:41;;;;;;;;;16.25;15.00;;;;;-143.90;100.00;76776.84;4867461;28;101852;-71
2024/02/02 10:38:32;;;;;;;;;14.75;13.75;;;;;-143.90;100.00;76776.84;4866533;28;101914;-72
2024/02/02 10:41:08;;;;;;;;;15.75;14.50;;;;;-143.90;100.00;76760.28;4859049;28;102992;-72
2024/02/02 10:43:59;;;;;;;;;12.25;10.50;;;;;-143.90;100.00;76741.69;4867213;28;110603;-72
2024/02/02 10:46:40;;;;;;;;;12.75;11.25;;;;;-143.90;100.00;76710.66;4862307;28;101967;-71
2024/02/02 10:49:21;;;;;;;;;12.00;10.75;;;;;-143.90;100.00;76735.47;4862359;28;102075;-71
2024/02/02 10:52:22;;;;;;;;;9.25;7.50;;;;;-143.90;100.00;76723.06;4866797;28;102104;-72
2024/02/02 10:55:07;;;;;;;;;14.75;11.00;;;;;-143.90;100.00;76718.94;4871021;28;108140;-71
2024/02/02 10:58:00;;;;;;;;;12.00;10.50;;;;;-143.90;100.00;76723.06;4867867;28;101718;-71
2024/02/02 11:00:36;;;;;;;;;12.75;10.75;;;;;-143.90;100.00;76710.66;4867764;28;103183;-71
2024/02/02 11:03:13;;;;;;;;;10.75;8.00;;;;;-143.90;100.00;76679.63;4858539;28;102601;-71
2024/02/02 11:06:01;;;;;;;;;12.50;11.00;;;;;-143.90;100.00;76673.44;4863603;28;104044;-72